Time;durP1;ratioP1;P1;durP2;ratioP2;P2;SDS_P1;SDS_P2;PMS_P1;PMS_P2;Temp;Humidity;BMP_temperature;BMP_pressure;BME280_temperature;BME280_humidity;BME280_pressure;Samples;Min_cycle;Max_cycle;Signal;HPM_P1;HPM_P2
2022/03/08 00:00:31;;;;;;;13.80;10.37;;;22.00;97.30;;;;;;5051352;28;20278;-78
2022/03/08 00:02:59;;;;;;;16.60;9.90;;;21.90;97.30;;;;;;5038282;28;20191;-79
2022/03/08 00:05:27;;;;;;;15.67;10.10;;;21.90;97.30;;;;;;5051343;28;20172;-81
2022/03/08 00:07:55;;;;;;;18.87;9.93;;;21.90;97.40;;;;;;5049476;28;20201;-87
2022/03/08 00:10:23;;;;;;;17.03;10.07;;;21.80;97.40;;;;;;5054183;28;20220;-84
2022/03/08 00:12:50;;;;;;;14.40;9.20;;;21.80;97.50;;;;;;5052845;28;20704;-78
2022/03/08 00:15:21;;;;;;;14.57;9.93;;;21.80;97.50;;;;;;5049790;28;20198;-80
2022/03/08 00:17:48;;;;;;;14.27;11.00;;;21.60;97.50;;;;;;5051902;28;20184;-82
2022/03/08 00:20:17;;;;;;;12.80;11.50;;;21.60;97.60;;;;;;5052694;28;20183;-82
2022/03/08 00:22:46;;;;;;;14.03;12.20;;;21.60;97.60;;;;;;5055208;28;20279;-79
2022/03/08 00:25:14;;;;;;;16.97;11.73;;;21.50;97.40;;;;;;5052054;28;20195;-79
2022/03/08 00:27:45;;;;;;;16.30;11.57;;;21.50;97.50;;;;;;5052530;28;20187;-79
2022/03/08 00:30:18;;;;;;;15.67;12.23;;;21.50;97.40;;;;;;5055870;28;20607;-77
2022/03/08 00:32:46;;;;;;;14.63;11.33;;;21.50;97.50;;;;;;5051307;28;20215;-81
2022/03/08 00:35:14;;;;;;;11.93;10.83;;;21.50;97.40;;;;;;5054385;28;20227;-77
2022/03/08 00:37:42;;;;;;;13.80;11.80;;;21.50;97.40;;;;;;5049075;28;20188;-81
2022/03/08 00:40:11;;;;;;;17.07;11.60;;;21.50;97.40;;;;;;5053943;28;20223;-76
2022/03/08 00:42:38;;;;;;;16.20;11.73;;;21.50;97.30;;;;;;5049217;28;20184;-77
2022/03/08 00:45:07;;;;;;;16.67;11.07;;;21.60;97.30;;;;;;5059238;28;20199;-78
2022/03/08 00:47:39;;;;;;;14.13;11.57;;;21.50;97.20;;;;;;5053108;28;20272;-79
2022/03/08 00:50:10;;;;;;;15.63;11.53;;;21.50;97.20;;;;;;5052621;28;20242;-78
2022/03/08 00:52:37;;;;;;;13.37;11.00;;;21.50;97.20;;;;;;5048663;28;20191;-78
2022/03/08 00:55:06;;;;;;;16.03;11.10;;;21.50;97.20;;;;;;5051159;28;20211;-79
2022/03/08 00:57:34;;;;;;;15.93;10.67;;;21.50;97.10;;;;;;5052830;28;20238;-78
2022/03/08 01:00:01;;;;;;;15.13;11.00;;;21.50;97.10;;;;;;5048470;28;20180;-81
2022/03/08 01:02:29;;;;;;;14.83;10.50;;;21.50;97.10;;;;;;5052441;28;20181;-79
2022/03/08 01:04:56;;;;;;;12.63;11.47;;;21.40;97.10;;;;;;5051466;28;20226;-79
2022/03/08 01:07:23;;;;;;;12.10;11.00;;;21.50;97.20;;;;;;5045533;28;20604;-78
2022/03/08 01:09:51;;;;;;;12.70;10.73;;;21.40;97.00;;;;;;5052563;28;20634;-81
2022/03/08 01:12:18;;;;;;;14.60;11.40;;;21.40;96.90;;;;;;5053433;28;20184;-78
2022/03/08 01:14:46;;;;;;;14.77;10.70;;;21.40;96.70;;;;;;5052849;28;20270;-79
2022/03/08 01:17:13;;;;;;;14.17;12.70;;;21.40;96.80;;;;;;5053308;28;20196;-77
2022/03/08 01:19:41;;;;;;;15.87;14.10;;;21.30;96.50;;;;;;5048271;28;20192;-77
2022/03/08 01:22:08;;;;;;;18.67;14.10;;;21.40;96.60;;;;;;5052317;28;20369;-79
2022/03/08 01:24:35;;;;;;;16.80;12.90;;;21.30;96.60;;;;;;5052217;28;20191;-78
2022/03/08 01:27:03;;;;;;;12.50;11.43;;;21.30;96.50;;;;;;5053335;28;20188;-78
2022/03/08 01:29:30;;;;;;;13.23;11.87;;;21.30;96.40;;;;;;5053149;28;20208;-77
2022/03/08 01:31:58;;;;;;;13.00;11.60;;;21.20;96.40;;;;;;5049369;28;20223;-82
2022/03/08 01:34:25;;;;;;;12.23;11.07;;;21.20;96.50;;;;;;5055294;28;20271;-82
2022/03/08 01:36:54;;;;;;;13.20;12.00;;;21.20;96.40;;;;;;5052750;28;20195;-79
2022/03/08 01:39:23;;;;;;;13.10;11.67;;;21.20;96.50;;;;;;5052644;28;20180;-82
2022/03/08 01:41:50;;;;;;;14.83;13.37;;;21.10;96.50;;;;;;5053018;28;20517;-80
2022/03/08 01:44:19;;;;;;;14.23;12.70;;;21.10;96.60;;;;;;5050799;28;20580;-81
2022/03/08 01:46:47;;;;;;;15.67;13.63;;;21.10;96.50;;;;;;5052664;28;20172;-82
2022/03/08 01:49:14;;;;;;;14.67;13.17;;;21.10;96.60;;;;;;5039536;28;20250;-80
2022/03/08 01:51:43;;;;;;;19.40;12.50;;;21.10;96.70;;;;;;5053659;28;20187;-81
2022/03/08 01:54:11;;;;;;;13.47;11.93;;;21.00;96.60;;;;;;5053463;28;20245;-78
2022/03/08 01:56:39;;;;;;;13.80;11.30;;;21.00;96.60;;;;;;5053181;28;20542;-82
2022/03/08 01:59:06;;;;;;;12.90;10.97;;;21.00;96.50;;;;;;5053012;28;20195;-75
2022/03/08 02:01:34;;;;;;;13.17;11.80;;;20.90;96.60;;;;;;5051849;28;20231;-80
2022/03/08 02:04:01;;;;;;;12.07;10.80;;;20.90;96.70;;;;;;5053059;28;20179;-80
2022/03/08 02:06:29;;;;;;;16.83;12.60;;;20.80;96.50;;;;;;5052934;28;20211;-80
2022/03/08 02:08:56;;;;;;;14.70;11.83;;;20.80;96.80;;;;;;5052876;28;20290;-82
2022/03/08 02:11:25;;;;;;;16.87;12.43;;;20.80;96.60;;;;;;5053066;28;20180;-83
2022/03/08 02:13:52;;;;;;;19.33;12.60;;;20.80;96.60;;;;;;5052828;28;20176;-88
2022/03/08 02:16:19;;;;;;;17.27;12.90;;;20.80;96.80;;;;;;5053045;28;20183;-83
2022/03/08 02:18:47;;;;;;;17.03;12.40;;;20.80;96.60;;;;;;5052672;28;20175;-80
2022/03/08 02:21:14;;;;;;;16.50;13.00;;;20.80;96.40;;;;;;5053075;28;20543;-81
2022/03/08 02:23:41;;;;;;;14.27;12.20;;;20.80;96.50;;;;;;5053343;28;20171;-76
2022/03/08 02:26:09;;;;;;;14.80;12.80;;;20.80;96.50;;;;;;5053199;28;20172;-84
2022/03/08 02:28:36;;;;;;;22.07;14.07;;;20.80;96.50;;;;;;5052629;28;20180;-79
2022/03/08 02:31:04;;;;;;;17.97;13.03;;;20.80;96.50;;;;;;5053405;28;20530;-77
2022/03/08 02:33:31;;;;;;;25.87;14.73;;;20.70;96.40;;;;;;5053147;28;20630;-83
2022/03/08 02:35:58;;;;;;;22.13;13.90;;;20.70;96.40;;;;;;5053177;28;20184;-80
2022/03/08 02:38:26;;;;;;;20.53;14.80;;;20.70;96.20;;;;;;5052933;28;20172;-80
2022/03/08 02:40:53;;;;;;;19.97;15.30;;;20.70;96.20;;;;;;5052880;28;20533;-77
2022/03/08 02:43:21;;;;;;;18.97;14.93;;;20.70;96.20;;;;;;5052892;28;20229;-79
2022/03/08 02:45:48;;;;;;;21.73;15.67;;;20.70;96.30;;;;;;5053126;28;20519;-80
2022/03/08 02:48:16;;;;;;;21.47;14.27;;;20.60;96.50;;;;;;5053118;28;20172;-80
2022/03/08 02:50:43;;;;;;;19.97;13.60;;;20.60;96.50;;;;;;5052990;28;20200;-81
2022/03/08 02:53:10;;;;;;;21.67;14.63;;;20.60;96.60;;;;;;5053167;28;20191;-74
2022/03/08 02:55:38;;;;;;;18.43;14.03;;;20.60;96.60;;;;;;5053138;28;20366;-82
2022/03/08 02:58:06;;;;;;;19.77;14.23;;;20.60;96.60;;;;;;5052986;28;20638;-76
2022/03/08 03:00:35;;;;;;;15.43;13.07;;;20.60;96.60;;;;;;5052480;28;20184;-83
2022/03/08 03:03:03;;;;;;;16.67;14.53;;;20.60;96.40;;;;;;5052842;28;20172;-83
2022/03/08 03:05:31;;;;;;;16.50;14.83;;;20.60;96.30;;;;;;5052637;28;20239;-80
2022/03/08 03:07:58;;;;;;;16.53;14.70;;;20.60;96.30;;;;;;5052633;28;20200;-78
2022/03/08 03:10:26;;;;;;;23.30;15.70;;;20.60;96.10;;;;;;5052294;28;20581;-76
2022/03/08 03:12:56;;;;;;;16.17;14.33;;;20.60;96.10;;;;;;5052367;28;20183;-77
2022/03/08 03:15:25;;;;;;;17.27;15.57;;;20.50;96.00;;;;;;5052680;28;20183;-78
2022/03/08 03:17:53;;;;;;;16.70;15.10;;;20.60;96.20;;;;;;5056569;28;20176;-86
2022/03/08 03:20:23;;;;;;;15.20;13.90;;;20.50;96.20;;;;;;5056140;28;20176;-79
2022/03/08 03:22:51;;;;;;;18.10;16.20;;;20.50;96.40;;;;;;5054950;28;20179;-82
2022/03/08 03:25:18;;;;;;;17.57;14.27;;;20.60;96.20;;;;;;5056361;28;20183;-77
2022/03/08 03:27:45;;;;;;;18.37;16.57;;;20.50;96.20;;;;;;5056292;28;20176;-82
2022/03/08 03:30:16;;;;;;;17.97;16.43;;;20.50;96.20;;;;;;5055941;28;20257;-77
2022/03/08 03:32:44;;;;;;;20.97;17.50;;;20.50;96.40;;;;;;5056032;28;20168;-82
2022/03/08 03:35:12;;;;;;;21.97;18.17;;;20.40;96.50;;;;;;5055975;28;20172;-78
2022/03/08 03:37:40;;;;;;;20.73;18.53;;;20.50;96.90;;;;;;5056039;28;20742;-80
2022/03/08 03:40:09;;;;;;;20.10;18.07;;;20.40;96.80;;;;;;5056113;28;20255;-82
2022/03/08 03:42:36;;;;;;;24.27;18.77;;;20.40;96.90;;;;;;5056115;28;20172;-82
2022/03/08 03:45:06;;;;;;;20.30;18.60;;;20.40;97.10;;;;;;5052857;28;20253;-80
2022/03/08 03:47:33;;;;;;;19.67;16.50;;;20.40;97.10;;;;;;5056220;28;20241;-77
2022/03/08 03:50:01;;;;;;;17.87;16.17;;;20.40;97.00;;;;;;5055185;28;20207;-82
2022/03/08 03:52:29;;;;;;;19.70;17.70;;;20.40;97.10;;;;;;5058915;28;20180;-77
2022/03/08 03:54:56;;;;;;;18.50;16.73;;;20.30;96.90;;;;;;5057204;28;20180;-83
2022/03/08 03:57:24;;;;;;;23.57;16.77;;;20.30;97.00;;;;;;5053574;28;20324;-75
2022/03/08 03:59:51;;;;;;;24.30;21.90;;;20.30;97.10;;;;;;5055466;28;20183;-76
2022/03/08 04:02:18;;;;;;;21.20;19.17;;;20.30;97.10;;;;;;5056158;28;20293;-78
2022/03/08 04:04:46;;;;;;;21.57;19.63;;;20.30;97.20;;;;;;5055758;28;20195;-83
2022/03/08 04:07:13;;;;;;;21.07;18.87;;;20.30;97.20;;;;;;5059198;28;20280;-75
2022/03/08 04:09:41;;;;;;;19.17;17.23;;;20.30;97.40;;;;;;5073966;28;20207;-82
2022/03/08 04:12:09;;;;;;;21.13;19.07;;;20.20;97.20;;;;;;5075732;28;20171;-83
2022/03/08 04:14:36;;;;;;;19.40;17.33;;;20.30;97.40;;;;;;5071054;28;20353;-80
2022/03/08 04:17:04;;;;;;;18.50;16.60;;;20.20;97.30;;;;;;5038845;28;20177;-87
2022/03/08 04:19:31;;;;;;;18.07;16.47;;;20.30;97.40;;;;;;5033801;28;20172;-83
2022/03/08 04:21:59;;;;;;;17.07;15.27;;;20.30;97.40;;;;;;5035029;28;20327;-83
2022/03/08 04:24:27;;;;;;;18.13;15.13;;;20.30;97.50;;;;;;5036278;28;20180;-83
2022/03/08 04:26:54;;;;;;;16.37;15.07;;;20.20;97.50;;;;;;5052551;28;20191;-86
2022/03/08 04:29:22;;;;;;;17.17;14.93;;;20.20;97.50;;;;;;5054544;28;20666;-81
2022/03/08 04:31:49;;;;;;;16.20;14.43;;;20.20;97.50;;;;;;5054579;28;20196;-82
2022/03/08 04:34:17;;;;;;;15.67;14.30;;;20.10;97.50;;;;;;5042822;28;20624;-86
2022/03/08 04:36:44;;;;;;;16.40;13.77;;;20.20;97.50;;;;;;5035690;28;20651;-80
2022/03/08 04:39:11;;;;;;;14.93;13.67;;;20.10;97.50;;;;;;5048749;28;20634;-81
2022/03/08 04:41:39;;;;;;;15.07;13.73;;;20.20;97.50;;;;;;5053823;28;20199;-79
2022/03/08 04:44:07;;;;;;;15.13;13.73;;;20.10;97.20;;;;;;5053896;28;20172;-78
2022/03/08 04:46:34;;;;;;;14.87;13.77;;;20.20;97.10;;;;;;5058121;28;20635;-81
2022/03/08 04:49:01;;;;;;;15.30;13.90;;;20.10;97.10;;;;;;5053939;28;20200;-81
2022/03/08 04:51:29;;;;;;;15.13;12.63;;;20.10;97.00;;;;;;5054297;28;20184;-78
2022/03/08 04:53:56;;;;;;;13.73;12.37;;;20.20;97.10;;;;;;5054417;28;20186;-74
2022/03/08 04:56:24;;;;;;;12.93;11.70;;;20.20;97.00;;;;;;5053130;28;20281;-76
2022/03/08 04:58:53;;;;;;;12.57;10.87;;;20.30;97.10;;;;;;5051261;28;20183;-81
2022/03/08 05:01:20;;;;;;;20.30;11.90;;;20.20;97.20;;;;;;5052606;28;20176;-82
2022/03/08 05:03:49;;;;;;;13.13;11.50;;;20.20;97.00;;;;;;5053358;28;20183;-76
2022/03/08 05:06:17;;;;;;;11.67;10.77;;;20.20;97.10;;;;;;5062994;28;20693;-79
2022/03/08 05:08:45;;;;;;;13.20;10.90;;;20.20;96.90;;;;;;5052439;28;20623;-80
2022/03/08 05:11:13;;;;;;;15.80;10.90;;;20.10;96.80;;;;;;5054127;28;23927;-79
2022/03/08 05:13:40;;;;;;;11.70;10.60;;;20.10;96.90;;;;;;5053878;28;20200;-76
2022/03/08 05:16:08;;;;;;;12.73;11.43;;;20.10;97.00;;;;;;5047794;28;20635;-77
2022/03/08 05:18:35;;;;;;;12.20;11.20;;;20.10;97.00;;;;;;5048873;28;20240;-75
2022/03/08 05:21:03;;;;;;;13.07;11.67;;;20.10;97.10;;;;;;5053683;28;20168;-79
2022/03/08 05:23:30;;;;;;;12.27;10.97;;;20.20;97.10;;;;;;5053690;28;20569;-79
2022/03/08 05:25:58;;;;;;;11.07;10.07;;;20.20;97.00;;;;;;5049635;28;20168;-77
2022/03/08 05:28:25;;;;;;;10.23;9.30;;;20.10;96.70;;;;;;5036492;28;20183;-76
2022/03/08 05:30:53;;;;;;;10.53;9.47;;;20.00;96.60;;;;;;5053189;28;20242;-78
2022/03/08 05:33:20;;;;;;;9.80;9.20;;;20.00;96.50;;;;;;5053668;28;20186;-75
2022/03/08 05:35:48;;;;;;;10.80;10.00;;;19.90;96.40;;;;;;5053242;28;20579;-77
2022/03/08 05:38:15;;;;;;;8.47;7.87;;;19.90;96.40;;;;;;5052653;28;20555;-76
2022/03/08 05:40:43;;;;;;;9.93;9.30;;;19.90;96.50;;;;;;5051706;28;20176;-72
2022/03/08 05:43:10;;;;;;;9.03;8.33;;;19.90;96.60;;;;;;5053297;28;20175;-77
2022/03/08 05:45:38;;;;;;;8.73;8.13;;;19.80;96.30;;;;;;5043437;28;20216;-78
2022/03/08 05:48:05;;;;;;;8.83;8.10;;;19.80;96.30;;;;;;5049781;28;20195;-75
2022/03/08 05:50:33;;;;;;;9.03;8.23;;;19.80;95.90;;;;;;5052294;28;20658;-76
2022/03/08 05:53:00;;;;;;;8.20;7.67;;;19.80;96.00;;;;;;5052077;28;20313;-79
2022/03/08 05:55:27;;;;;;;8.97;8.53;;;19.70;95.60;;;;;;5052346;28;20278;-78
2022/03/08 05:57:55;;;;;;;9.90;9.23;;;19.70;96.10;;;;;;5050174;28;20187;-78
2022/03/08 06:00:22;;;;;;;10.53;9.80;;;19.70;96.10;;;;;;5052597;28;20187;-75
2022/03/08 06:02:50;;;;;;;9.60;8.90;;;19.70;96.40;;;;;;5052813;28;20650;-78
2022/03/08 06:05:17;;;;;;;10.20;9.30;;;19.70;96.60;;;;;;5042207;28;20338;-79
2022/03/08 06:07:45;;;;;;;9.40;8.60;;;19.70;96.70;;;;;;5033137;28;20624;-78
2022/03/08 06:10:12;;;;;;;9.40;8.57;;;19.60;96.60;;;;;;5049485;28;20218;-76
2022/03/08 06:12:41;;;;;;;10.00;8.83;;;19.60;96.70;;;;;;5052978;28;20530;-74
2022/03/08 06:15:09;;;;;;;8.87;8.20;;;19.60;96.50;;;;;;5052648;28;20180;-76
2022/03/08 06:17:37;;;;;;;8.77;7.90;;;19.70;96.50;;;;;;5052696;28;20188;-80
2022/03/08 06:20:05;;;;;;;10.17;8.83;;;19.70;96.30;;;;;;5049179;28;20275;-78
2022/03/08 06:22:32;;;;;;;9.77;8.87;;;19.80;96.20;;;;;;5052717;28;20195;-76
2022/03/08 06:24:59;;;;;;;12.90;7.77;;;19.80;96.20;;;;;;5051650;28;20180;-77
2022/03/08 06:27:30;;;;;;;10.13;6.80;;;19.70;95.70;;;;;;5052984;28;20174;-76
2022/03/08 06:29:57;;;;;;;8.53;7.30;;;19.80;95.70;;;;;;5051452;28;20304;-77
2022/03/08 06:32:25;;;;;;;8.33;7.57;;;19.80;95.90;;;;;;5052265;28;20309;-81
2022/03/08 06:34:52;;;;;;;7.53;6.17;;;19.80;96.00;;;;;;5051505;28;20629;-84
2022/03/08 06:37:21;;;;;;;6.27;5.67;;;19.70;95.60;;;;;;5045263;28;20263;-74
2022/03/08 06:39:48;;;;;;;10.60;6.20;;;19.80;95.10;;;;;;5052056;28;20187;-79
2022/03/08 06:42:16;;;;;;;6.40;5.53;;;19.90;95.00;;;;;;5046083;28;20211;-75
2022/03/08 06:44:44;;;;;;;10.07;5.47;;;20.00;94.70;;;;;;5052193;28;20176;-73
2022/03/08 06:47:15;;;;;;;11.77;5.93;;;20.00;94.10;;;;;;5052722;28;20183;-72
2022/03/08 06:49:43;;;;;;;8.40;4.70;;;20.10;93.90;;;;;;5052512;28;20685;-74
2022/03/08 06:52:11;;;;;;;4.43;3.97;;;20.10;93.60;;;;;;5055546;28;20176;-73
2022/03/08 06:54:39;;;;;;;5.87;3.33;;;20.10;92.70;;;;;;5056183;28;20203;-74
2022/03/08 06:57:07;;;;;;;6.73;3.70;;;20.20;92.50;;;;;;5056495;28;20183;-73
2022/03/08 06:59:34;;;;;;;4.83;3.70;;;20.20;92.60;;;;;;5056021;28;20180;-73
2022/03/08 07:02:02;;;;;;;3.37;3.10;;;20.20;92.90;;;;;;5056050;28;20203;-75
2022/03/08 07:04:29;;;;;;;5.47;3.03;;;20.20;92.70;;;;;;5056369;28;20620;-85
2022/03/08 07:06:56;;;;;;;3.23;2.37;;;20.20;92.40;;;;;;5054527;28;20222;-76
2022/03/08 07:09:24;;;;;;;4.27;2.63;;;20.20;91.70;;;;;;5055615;28;20220;-73
2022/03/08 07:11:52;;;;;;;3.03;2.03;;;20.20;92.10;;;;;;5055577;28;20172;-73
2022/03/08 07:14:20;;;;;;;4.03;2.30;;;20.20;91.50;;;;;;5055463;28;20222;-73
2022/03/08 07:16:48;;;;;;;1.90;1.80;;;20.20;91.70;;;;;;5056015;28;20172;-72
2022/03/08 07:19:16;;;;;;;4.47;1.90;;;20.20;91.30;;;;;;5056359;28;20179;-79
2022/03/08 07:21:45;;;;;;;1.30;1.20;;;20.30;90.90;;;;;;5053676;28;20241;-74
2022/03/08 07:24:13;;;;;;;3.63;1.80;;;20.30;90.70;;;;;;5049455;28;20172;-77
2022/03/08 07:26:41;;;;;;;1.97;1.30;;;20.30;90.80;;;;;;5055639;28;20180;-74
2022/03/08 07:29:09;;;;;;;1.50;1.40;;;20.30;90.60;;;;;;5054060;28;20661;-76
2022/03/08 07:31:36;;;;;;;1.20;1.10;;;20.40;90.80;;;;;;5051540;28;20252;-74
2022/03/08 07:34:06;;;;;;;1.70;1.10;;;20.40;90.30;;;;;;5054300;28;20233;-74
2022/03/08 07:36:35;;;;;;;2.43;1.20;;;20.40;90.20;;;;;;5043098;28;20186;-74
2022/03/08 07:39:03;;;;;;;1.83;1.43;;;20.40;90.30;;;;;;5055787;28;20274;-76
2022/03/08 07:41:30;;;;;;;1.60;1.40;;;20.40;90.20;;;;;;5041657;28;20203;-76
2022/03/08 07:43:58;;;;;;;1.73;1.20;;;20.40;90.60;;;;;;5050473;28;20267;-75
2022/03/08 07:46:25;;;;;;;1.20;1.20;;;20.40;90.10;;;;;;5051080;28;20187;-76
2022/03/08 07:48:52;;;;;;;1.83;1.00;;;20.50;90.30;;;;;;5055449;28;20176;-73
2022/03/08 07:51:20;;;;;;;2.40;1.20;;;20.50;90.10;;;;;;5051683;28;20192;-75
2022/03/08 07:53:47;;;;;;;1.33;1.23;;;20.30;90.80;;;;;;5053615;28;20543;-77
2022/03/08 07:56:14;;;;;;;3.33;1.30;;;20.30;90.50;;;;;;5053543;28;20203;-74
2022/03/08 07:58:42;;;;;;;1.93;1.40;;;20.30;91.00;;;;;;5048886;28;20180;-74
2022/03/08 08:01:09;;;;;;;2.03;1.80;;;20.20;91.50;;;;;;5045827;28;20177;-73
2022/03/08 08:03:37;;;;;;;3.53;1.80;;;20.20;91.90;;;;;;5055283;28;20562;-75
2022/03/08 08:06:05;;;;;;;1.93;1.70;;;20.10;91.70;;;;;;5042019;28;20259;-75
2022/03/08 08:08:32;;;;;;;2.30;2.10;;;20.10;91.70;;;;;;5045834;28;20193;-74
2022/03/08 08:11:00;;;;;;;2.10;2.00;;;20.10;91.90;;;;;;5035532;28;20219;-79
2022/03/08 08:13:28;;;;;;;3.37;2.07;;;20.10;91.60;;;;;;5050930;28;20693;-76
2022/03/08 08:15:56;;;;;;;2.77;2.47;;;20.10;91.90;;;;;;5037490;28;20192;-83
2022/03/08 08:18:23;;;;;;;2.93;2.67;;;20.00;92.80;;;;;;5035846;28;20168;-77
2022/03/08 08:20:50;;;;;;;2.93;2.73;;;20.00;92.70;;;;;;5045741;28;20176;-73
2022/03/08 08:23:17;;;;;;;2.80;2.60;;;20.00;92.80;;;;;;5040253;28;20183;-75
2022/03/08 08:25:45;;;;;;;2.83;2.63;;;20.00;92.40;;;;;;5055730;28;20180;-75
2022/03/08 08:28:12;;;;;;;4.33;2.30;;;20.00;92.30;;;;;;5054749;28;20234;-75
2022/03/08 08:30:40;;;;;;;4.10;2.30;;;20.10;91.50;;;;;;5035228;28;20573;-74
2022/03/08 08:33:07;;;;;;;2.93;2.27;;;20.10;91.40;;;;;;5036936;28;20180;-72
2022/03/08 08:35:35;;;;;;;2.77;2.00;;;20.20;91.30;;;;;;5035668;28;20181;-73
2022/03/08 08:38:02;;;;;;;1.83;1.73;;;20.30;90.90;;;;;;5055793;28;20218;-74
2022/03/08 08:40:30;;;;;;;4.53;1.70;;;20.30;90.80;;;;;;5053034;28;20380;-74
2022/03/08 08:42:57;;;;;;;2.80;1.70;;;20.30;90.40;;;;;;5054274;28;20180;-79
2022/03/08 08:45:25;;;;;;;1.40;1.20;;;20.30;90.10;;;;;;5054634;28;20176;-76
2022/03/08 08:47:52;;;;;;;1.90;1.10;;;20.30;90.20;;;;;;5046021;28;20172;-75
2022/03/08 08:50:19;;;;;;;0.87;0.83;;;20.40;89.20;;;;;;5047948;28;20212;-77
2022/03/08 08:52:47;;;;;;;2.10;1.00;;;20.40;89.20;;;;;;5049871;28;20179;-76
2022/03/08 08:55:14;;;;;;;1.20;0.70;;;20.40;89.40;;;;;;5049922;28;20176;-80
2022/03/08 08:57:42;;;;;;;0.80;0.60;;;20.40;88.60;;;;;;5034989;28;20678;-76
2022/03/08 09:00:10;;;;;;;1.23;0.70;;;20.40;88.70;;;;;;5050112;28;20191;-75
2022/03/08 09:02:40;;;;;;;0.83;0.73;;;20.40;88.70;;;;;;5053885;28;20179;-78
2022/03/08 09:05:09;;;;;;;0.93;0.70;;;20.30;89.00;;;;;;5054360;28;20176;-78
2022/03/08 09:07:36;;;;;;;1.40;0.63;;;20.30;88.80;;;;;;5052388;28;21328;-77
2022/03/08 09:10:06;;;;;;;0.83;0.60;;;20.30;88.90;;;;;;5046566;28;20272;-79
2022/03/08 09:12:34;;;;;;;0.73;0.60;;;20.30;88.70;;;;;;5054222;28;20190;-77
2022/03/08 09:15:07;;;;;;;1.20;0.80;;;20.30;89.20;;;;;;5053486;28;20260;-77
2022/03/08 09:17:37;;;;;;;1.23;1.13;;;20.10;90.10;;;;;;5070759;28;20184;-74
2022/03/08 09:20:09;;;;;;;2.30;1.20;;;20.00;90.70;;;;;;5054120;28;20202;-81
2022/03/08 09:22:37;;;;;;;2.50;1.43;;;19.80;91.30;;;;;;5054291;28;20171;-77
2022/03/08 09:25:05;;;;;;;2.43;1.53;;;19.80;91.50;;;;;;5045497;28;20187;-78
2022/03/08 09:27:34;;;;;;;2.20;1.40;;;19.80;91.70;;;;;;5051224;28;20307;-77
2022/03/08 09:30:06;;;;;;;1.67;1.57;;;19.80;91.20;;;;;;5052088;28;20580;-82
2022/03/08 09:32:33;;;;;;;3.00;1.37;;;19.80;91.10;;;;;;5053734;28;20199;-76
2022/03/08 09:35:01;;;;;;;1.67;1.47;;;19.80;90.70;;;;;;5042095;28;20713;-77
2022/03/08 09:37:28;;;;;;;1.83;1.30;;;19.80;90.70;;;;;;5033937;28;20246;-79
2022/03/08 09:39:55;;;;;;;2.50;1.30;;;19.80;90.50;;;;;;5049837;28;20172;-76
2022/03/08 09:42:23;;;;;;;2.10;1.30;;;19.80;90.30;;;;;;5049125;28;20187;-76
2022/03/08 09:44:51;;;;;;;2.43;1.30;;;19.90;90.00;;;;;;5043947;28;20181;-78
2022/03/08 09:47:19;;;;;;;1.70;1.30;;;19.80;89.90;;;;;;5041237;28;20643;-77
2022/03/08 09:49:46;;;;;;;1.30;1.20;;;19.90;90.10;;;;;;5052861;28;20697;-78
2022/03/08 09:52:13;;;;;;;1.73;1.47;;;19.80;90.40;;;;;;5052122;28;20580;-76
2022/03/08 09:54:46;;;;;;;3.83;1.50;;;19.80;90.50;;;;;;5053517;28;20183;-77
2022/03/08 09:57:15;;;;;;;3.93;1.90;;;19.80;90.50;;;;;;5053953;28;20176;-78
2022/03/08 09:59:43;;;;;;;5.13;2.27;;;19.80;90.90;;;;;;5051670;28;20266;-78
2022/03/08 10:02:14;;;;;;;4.40;1.90;;;19.80;91.30;;;;;;5051213;28;20541;-76
2022/03/08 10:04:42;;;;;;;6.87;2.23;;;19.70;91.30;;;;;;5034111;28;20184;-76
2022/03/08 10:07:11;;;;;;;5.90;2.43;;;19.70;91.70;;;;;;5053358;28;20243;-78
2022/03/08 10:09:39;;;;;;;5.63;2.47;;;19.70;92.00;;;;;;5049658;28;20340;-78
2022/03/08 10:12:17;;;;;;;3.53;2.43;;;19.60;92.10;;;;;;5049545;28;20171;-80
2022/03/08 10:14:48;;;;;;;4.10;2.87;;;19.50;92.30;;;;;;5041705;28;20195;-81
2022/03/08 10:17:37;;;;;;;3.13;2.83;;;19.40;92.70;;;;;;5050242;28;20643;-74
2022/03/08 10:20:07;;;;;;;4.53;3.77;;;19.30;93.60;;;;;;5045263;28;20218;-76
2022/03/08 10:22:40;;;;;;;6.83;4.30;;;19.20;94.00;;;;;;5049268;28;20179;-77
2022/03/08 10:25:24;;;;;;;7.30;5.00;;;19.10;94.90;;;;;;5053037;28;20529;-77
2022/03/08 10:28:02;;;;;;;7.93;5.80;;;19.00;95.60;;;;;;5050971;28;20170;-75
2022/03/08 10:30:43;;;;;;;8.17;5.60;;;18.90;96.20;;;;;;5048282;28;20226;-76
2022/03/08 10:33:12;;;;;;;11.63;8.23;;;18.80;96.50;;;;;;5048093;28;20180;-78
2022/03/08 10:35:42;;;;;;;11.87;10.53;;;18.80;96.60;;;;;;5039159;28;20682;-78
2022/03/08 10:38:14;;;;;;;13.17;11.90;;;18.80;96.60;;;;;;5035136;28;20661;-79
2022/03/08 10:40:43;;;;;;;13.37;10.23;;;18.80;96.30;;;;;;5045856;28;20179;-77
2022/03/08 10:43:15;;;;;;;15.13;13.90;;;18.80;96.30;;;;;;5052124;28;20329;-77
2022/03/08 10:45:48;;;;;;;13.37;12.00;;;18.80;96.30;;;;;;5052354;28;20179;-73
2022/03/08 10:48:18;;;;;;;13.07;12.07;;;18.80;96.50;;;;;;5052453;28;20187;-77
2022/03/08 10:50:51;;;;;;;12.70;11.57;;;18.80;96.50;;;;;;5051846;28;20215;-73
2022/03/08 10:53:18;;;;;;;13.63;12.67;;;18.80;96.00;;;;;;5051804;28;20236;-76
2022/03/08 10:55:48;;;;;;;14.33;12.93;;;18.80;96.00;;;;;;5052285;28;20647;-74
2022/03/08 10:58:17;;;;;;;11.87;10.80;;;18.80;96.20;;;;;;5051926;28;20192;-79
2022/03/08 11:00:55;;;;;;;14.77;12.07;;;18.80;96.00;;;;;;5049531;28;20189;-81
2022/03/08 11:03:25;;;;;;;13.03;11.37;;;18.80;95.90;;;;;;5052128;28;20179;-74
2022/03/08 11:06:05;;;;;;;12.50;11.23;;;18.80;95.90;;;;;;5046692;28;20292;-78
2022/03/08 11:08:33;;;;;;;11.90;10.77;;;18.80;95.80;;;;;;5033027;28;20187;-76
2022/03/08 11:11:01;;;;;;;12.43;11.33;;;18.80;95.90;;;;;;5039430;28;20303;-81
2022/03/08 11:13:28;;;;;;;12.67;11.43;;;18.80;95.60;;;;;;5052114;28;20668;-78
2022/03/08 11:15:56;;;;;;;12.60;11.50;;;18.80;95.90;;;;;;5052271;28;20190;-76
2022/03/08 11:18:24;;;;;;;12.90;11.73;;;18.70;96.00;;;;;;5051494;28;20175;-74
2022/03/08 11:20:58;;;;;;;12.70;11.60;;;18.70;95.70;;;;;;5050539;28;20535;-77
2022/03/08 11:23:26;;;;;;;13.97;12.93;;;18.60;95.80;;;;;;5052452;28;20163;-75
2022/03/08 11:25:54;;;;;;;12.70;11.60;;;18.60;96.00;;;;;;5051992;28;20214;-73
2022/03/08 11:28:22;;;;;;;11.00;9.97;;;18.50;96.20;;;;;;5051922;28;20237;-78
2022/03/08 11:30:52;;;;;;;9.70;8.83;;;18.50;95.80;;;;;;5051752;28;20216;-75
2022/03/08 11:33:40;;;;;;;8.90;8.17;;;18.60;95.60;;;;;;5050762;28;20180;-79
2022/03/08 11:36:42;;;;;;;7.57;7.07;;;18.60;95.40;;;;;;5040715;28;20221;-79
2022/03/08 11:39:24;;;;;;;8.20;7.70;;;18.60;95.30;;;;;;5051018;28;20269;-84
2022/03/08 11:42:29;;;;;;;6.80;6.27;;;18.60;95.40;;;;;;5052775;28;20184;-75
2022/03/08 11:45:11;;;;;;;6.10;5.80;;;18.60;95.10;;;;;;5052769;28;20662;-75
2022/03/08 11:47:52;;;;;;;6.20;5.60;;;18.60;95.00;;;;;;5039199;28;20185;-74
2022/03/08 11:50:29;;;;;;;4.07;3.70;;;18.60;94.80;;;;;;5055406;28;20236;-76
2022/03/08 11:53:08;;;;;;;4.43;4.10;;;18.70;94.00;;;;;;5054815;28;20190;-74
2022/03/08 11:55:40;;;;;;;4.27;3.97;;;18.60;94.40;;;;;;5049888;28;20210;-77
2022/03/08 11:58:31;;;;;;;5.07;4.27;;;18.60;94.30;;;;;;5055326;28;20183;-77
2022/03/08 12:00:59;;;;;;;7.43;3.83;;;18.50;94.10;;;;;;5047532;28;20672;-77
2022/03/08 12:03:30;;;;;;;6.03;3.57;;;18.50;94.30;;;;;;5055700;28;20172;-78
2022/03/08 12:06:01;;;;;;;3.97;2.60;;;18.50;93.90;;;;;;5054800;28;20211;-75
2022/03/08 12:08:28;;;;;;;3.53;3.03;;;18.60;92.90;;;;;;5055688;28;20264;-77
2022/03/08 12:11:01;;;;;;;5.43;3.00;;;18.50;93.50;;;;;;5055364;28;20214;-78
2022/03/08 12:13:32;;;;;;;5.53;3.00;;;18.50;93.40;;;;;;5054929;28;20187;-75
2022/03/08 12:16:08;;;;;;;4.87;3.40;;;18.40;94.00;;;;;;5055253;28;20194;-74
2022/03/08 12:18:41;;;;;;;5.73;3.27;;;18.40;94.00;;;;;;5053435;28;20662;-74
2022/03/08 12:21:19;;;;;;;4.50;2.60;;;18.40;93.80;;;;;;5055230;28;20708;-78
2022/03/08 12:23:49;;;;;;;3.63;2.73;;;18.50;93.20;;;;;;5050157;28;20202;-77
2022/03/08 12:26:30;;;;;;;5.33;2.60;;;18.50;93.10;;;;;;5037093;28;20176;-77
2022/03/08 12:29:23;;;;;;;5.23;2.43;;;18.40;93.50;;;;;;5051803;28;20188;-79
2022/03/08 12:32:01;;;;;;;4.20;2.10;;;18.50;92.90;;;;;;5034878;28;20184;-78
2022/03/08 12:34:35;;;;;;;4.73;1.90;;;18.50;92.20;;;;;;5053205;28;20705;-77
2022/03/08 12:37:17;;;;;;;4.47;1.83;;;18.60;91.90;;;;;;5051534;28;20186;-74
2022/03/08 12:39:56;;;;;;;3.50;1.70;;;18.70;91.80;;;;;;5054072;28;20180;-74
2022/03/08 12:42:33;;;;;;;3.60;1.70;;;18.60;91.80;;;;;;5054894;28;20172;-74
2022/03/08 12:45:02;;;;;;;2.40;1.80;;;18.60;91.50;;;;;;5054210;28;20183;-79